sensor_id;sensor_type;location;lat;lon;timestamp;P1;durP1;ratioP1;P2;durP2;ratioP2
66256;SDS011;53049;43.446;3.698;2023-05-15T00:00:12;6.20;;;3.13;;
66256;SDS011;53049;43.446;3.698;2023-05-15T00:02:39;4.90;;;3.40;;
66256;SDS011;53049;43.446;3.698;2023-05-15T00:05:05;4.60;;;3.42;;
66256;SDS011;53049;43.446;3.698;2023-05-15T00:07:32;4.32;;;2.97;;
66256;SDS011;53049;43.446;3.698;2023-05-15T00:09:58;4.95;;;3.38;;
66256;SDS011;53049;43.446;3.698;2023-05-15T00:12:23;4.68;;;3.20;;
66256;SDS011;53049;43.446;3.698;2023-05-15T00:14:49;4.80;;;3.45;;
66256;SDS011;53049;43.446;3.698;2023-05-15T00:17:14;5.03;;;3.20;;
66256;SDS011;53049;43.446;3.698;2023-05-15T00:19:40;4.65;;;3.20;;
66256;SDS011;53049;43.446;3.698;2023-05-15T00:22:06;5.68;;;3.90;;
66256;SDS011;53049;43.446;3.698;2023-05-15T00:24:32;5.93;;;3.63;;
66256;SDS011;53049;43.446;3.698;2023-05-15T00:26:58;6.75;;;3.80;;
66256;SDS011;53049;43.446;3.698;2023-05-15T00:29:25;6.10;;;4.07;;
66256;SDS011;53049;43.446;3.698;2023-05-15T00:31:50;7.38;;;3.40;;
66256;SDS011;53049;43.446;3.698;2023-05-15T00:34:16;4.70;;;3.47;;
66256;SDS011;53049;43.446;3.698;2023-05-15T00:36:42;5.65;;;3.70;;
66256;SDS011;53049;43.446;3.698;2023-05-15T00:39:08;5.30;;;3.42;;
66256;SDS011;53049;43.446;3.698;2023-05-15T00:41:34;4.82;;;3.45;;
66256;SDS011;53049;43.446;3.698;2023-05-15T00:44:00;5.40;;;3.70;;
66256;SDS011;53049;43.446;3.698;2023-05-15T00:46:27;9.27;;;3.70;;
66256;SDS011;53049;43.446;3.698;2023-05-15T00:48:55;5.68;;;3.92;;
66256;SDS011;53049;43.446;3.698;2023-05-15T00:51:22;5.05;;;3.85;;
66256;SDS011;53049;43.446;3.698;2023-05-15T00:53:48;5.20;;;3.90;;
66256;SDS011;53049;43.446;3.698;2023-05-15T00:56:18;6.03;;;4.00;;
66256;SDS011;53049;43.446;3.698;2023-05-15T00:58:45;5.18;;;3.55;;
66256;SDS011;53049;43.446;3.698;2023-05-15T01:01:13;6.95;;;3.65;;
66256;SDS011;53049;43.446;3.698;2023-05-15T01:03:40;6.30;;;4.03;;
66256;SDS011;53049;43.446;3.698;2023-05-15T01:06:06;5.20;;;3.60;;
66256;SDS011;53049;43.446;3.698;2023-05-15T01:08:36;7.82;;;3.92;;
66256;SDS011;53049;43.446;3.698;2023-05-15T01:11:03;5.65;;;4.18;;
66256;SDS011;53049;43.446;3.698;2023-05-15T01:13:31;6.38;;;4.00;;
66256;SDS011;53049;43.446;3.698;2023-05-15T01:15:57;5.35;;;3.92;;
66256;SDS011;53049;43.446;3.698;2023-05-15T01:18:23;6.28;;;4.00;;
66256;SDS011;53049;43.446;3.698;2023-05-15T01:32:15;6.22;;;4.15;;
66256;SDS011;53049;43.446;3.698;2023-05-15T01:37:21;6.43;;;4.30;;
66256;SDS011;53049;43.446;3.698;2023-05-15T01:39:52;5.75;;;4.03;;
66256;SDS011;53049;43.446;3.698;2023-05-15T01:42:22;5.32;;;4.20;;
66256;SDS011;53049;43.446;3.698;2023-05-15T01:44:54;7.75;;;4.82;;
66256;SDS011;53049;43.446;3.698;2023-05-15T01:47:26;7.45;;;4.28;;
66256;SDS011;53049;43.446;3.698;2023-05-15T01:49:57;7.20;;;4.75;;
66256;SDS011;53049;43.446;3.698;2023-05-15T01:52:35;6.40;;;4.82;;
66256;SDS011;53049;43.446;3.698;2023-05-15T01:55:06;6.85;;;4.35;;
66256;SDS011;53049;43.446;3.698;2023-05-15T01:57:33;9.32;;;4.80;;
66256;SDS011;53049;43.446;3.698;2023-05-15T02:00:00;7.65;;;4.53;;
66256;SDS011;53049;43.446;3.698;2023-05-15T02:02:27;6.88;;;4.75;;
66256;SDS011;53049;43.446;3.698;2023-05-15T02:04:55;7.75;;;4.60;;
66256;SDS011;53049;43.446;3.698;2023-05-15T02:07:21;6.18;;;4.38;;
66256;SDS011;53049;43.446;3.698;2023-05-15T02:09:48;6.20;;;4.25;;
66256;SDS011;53049;43.446;3.698;2023-05-15T02:12:16;6.85;;;4.60;;
66256;SDS011;53049;43.446;3.698;2023-05-15T02:14:43;6.47;;;4.93;;
66256;SDS011;53049;43.446;3.698;2023-05-15T02:17:10;6.85;;;4.25;;
66256;SDS011;53049;43.446;3.698;2023-05-15T02:19:36;5.65;;;4.50;;
66256;SDS011;53049;43.446;3.698;2023-05-15T02:22:01;7.55;;;4.53;;
66256;SDS011;53049;43.446;3.698;2023-05-15T02:24:27;6.70;;;4.43;;
66256;SDS011;53049;43.446;3.698;2023-05-15T02:26:59;7.38;;;4.80;;
66256;SDS011;53049;43.446;3.698;2023-05-15T02:32:19;7.00;;;4.88;;
66256;SDS011;53049;43.446;3.698;2023-05-15T02:37:51;6.90;;;4.65;;
66256;SDS011;53049;43.446;3.698;2023-05-15T02:40:19;7.82;;;4.72;;
66256;SDS011;53049;43.446;3.698;2023-05-15T02:42:47;6.53;;;4.47;;
66256;SDS011;53049;43.446;3.698;2023-05-15T02:45:16;6.63;;;4.60;;
66256;SDS011;53049;43.446;3.698;2023-05-15T02:47:43;6.68;;;4.40;;
66256;SDS011;53049;43.446;3.698;2023-05-15T02:50:09;8.18;;;4.40;;
66256;SDS011;53049;43.446;3.698;2023-05-15T02:52:35;7.97;;;4.85;;
66256;SDS011;53049;43.446;3.698;2023-05-15T02:55:01;6.22;;;4.70;;
66256;SDS011;53049;43.446;3.698;2023-05-15T02:57:26;8.70;;;5.13;;
66256;SDS011;53049;43.446;3.698;2023-05-15T02:59:52;8.73;;;5.13;;
66256;SDS011;53049;43.446;3.698;2023-05-15T03:02:19;9.48;;;4.60;;
66256;SDS011;53049;43.446;3.698;2023-05-15T03:04:45;6.85;;;4.95;;
66256;SDS011;53049;43.446;3.698;2023-05-15T03:07:10;6.55;;;5.18;;
66256;SDS011;53049;43.446;3.698;2023-05-15T03:09:38;6.80;;;4.88;;
66256;SDS011;53049;43.446;3.698;2023-05-15T03:12:04;6.75;;;4.97;;
66256;SDS011;53049;43.446;3.698;2023-05-15T03:14:31;7.30;;;4.53;;
66256;SDS011;53049;43.446;3.698;2023-05-15T03:16:56;7.18;;;4.80;;
66256;SDS011;53049;43.446;3.698;2023-05-15T03:19:22;9.38;;;5.03;;
66256;SDS011;53049;43.446;3.698;2023-05-15T03:21:48;6.38;;;4.82;;
66256;SDS011;53049;43.446;3.698;2023-05-15T03:24:13;8.82;;;4.72;;
66256;SDS011;53049;43.446;3.698;2023-05-15T03:26:39;9.45;;;5.15;;
66256;SDS011;53049;43.446;3.698;2023-05-15T03:29:06;8.57;;;5.25;;
66256;SDS011;53049;43.446;3.698;2023-05-15T03:31:32;9.35;;;4.80;;
66256;SDS011;53049;43.446;3.698;2023-05-15T03:33:58;7.95;;;5.18;;
66256;SDS011;53049;43.446;3.698;2023-05-15T03:36:23;7.03;;;5.15;;
66256;SDS011;53049;43.446;3.698;2023-05-15T03:38:49;8.10;;;4.78;;
66256;SDS011;53049;43.446;3.698;2023-05-15T03:41:15;7.85;;;4.88;;
66256;SDS011;53049;43.446;3.698;2023-05-15T03:43:40;6.13;;;4.75;;
66256;SDS011;53049;43.446;3.698;2023-05-15T03:46:06;7.78;;;5.28;;
66256;SDS011;53049;43.446;3.698;2023-05-15T03:48:32;8.05;;;5.50;;
66256;SDS011;53049;43.446;3.698;2023-05-15T03:50:57;9.20;;;5.28;;
66256;SDS011;53049;43.446;3.698;2023-05-15T03:53:23;7.30;;;5.40;;
66256;SDS011;53049;43.446;3.698;2023-05-15T03:55:49;7.50;;;5.10;;
66256;SDS011;53049;43.446;3.698;2023-05-15T03:58:14;11.18;;;5.72;;
66256;SDS011;53049;43.446;3.698;2023-05-15T04:00:40;7.38;;;4.97;;
66256;SDS011;53049;43.446;3.698;2023-05-15T04:03:06;6.07;;;4.75;;
66256;SDS011;53049;43.446;3.698;2023-05-15T04:05:32;7.57;;;5.85;;
66256;SDS011;53049;43.446;3.698;2023-05-15T04:07:57;6.75;;;5.32;;
66256;SDS011;53049;43.446;3.698;2023-05-15T04:10:23;7.25;;;5.47;;
66256;SDS011;53049;43.446;3.698;2023-05-15T04:12:48;10.30;;;5.30;;
66256;SDS011;53049;43.446;3.698;2023-05-15T04:15:19;7.32;;;5.55;;
66256;SDS011;53049;43.446;3.698;2023-05-15T04:17:47;9.13;;;5.32;;
66256;SDS011;53049;43.446;3.698;2023-05-15T04:20:15;8.95;;;5.28;;
66256;SDS011;53049;43.446;3.698;2023-05-15T04:22:42;7.07;;;5.22;;
66256;SDS011;53049;43.446;3.698;2023-05-15T04:25:09;9.48;;;5.53;;
66256;SDS011;53049;43.446;3.698;2023-05-15T04:27:36;9.20;;;5.57;;
66256;SDS011;53049;43.446;3.698;2023-05-15T04:30:03;7.15;;;5.60;;
66256;SDS011;53049;43.446;3.698;2023-05-15T04:32:29;9.35;;;5.53;;
66256;SDS011;53049;43.446;3.698;2023-05-15T04:34:55;8.45;;;5.10;;
66256;SDS011;53049;43.446;3.698;2023-05-15T04:37:21;8.15;;;5.90;;
66256;SDS011;53049;43.446;3.698;2023-05-15T04:39:46;9.20;;;5.80;;
66256;SDS011;53049;43.446;3.698;2023-05-15T04:42:12;7.75;;;5.60;;
66256;SDS011;53049;43.446;3.698;2023-05-15T04:44:38;8.00;;;5.20;;
66256;SDS011;53049;43.446;3.698;2023-05-15T04:47:03;9.45;;;6.07;;
66256;SDS011;53049;43.446;3.698;2023-05-15T04:49:29;7.85;;;5.28;;
66256;SDS011;53049;43.446;3.698;2023-05-15T04:51:55;9.55;;;5.50;;
66256;SDS011;53049;43.446;3.698;2023-05-15T04:54:20;7.35;;;5.60;;
66256;SDS011;53049;43.446;3.698;2023-05-15T04:56:46;7.97;;;5.43;;
66256;SDS011;53049;43.446;3.698;2023-05-15T04:59:12;8.20;;;5.70;;
66256;SDS011;53049;43.446;3.698;2023-05-15T05:01:37;8.15;;;4.95;;
66256;SDS011;53049;43.446;3.698;2023-05-15T05:04:03;8.40;;;5.70;;
66256;SDS011;53049;43.446;3.698;2023-05-15T05:06:29;7.30;;;5.70;;
66256;SDS011;53049;43.446;3.698;2023-05-15T05:08:55;11.43;;;5.63;;
66256;SDS011;53049;43.446;3.698;2023-05-15T05:11:21;8.73;;;6.00;;
66256;SDS011;53049;43.446;3.698;2023-05-15T05:13:47;9.02;;;5.50;;
66256;SDS011;53049;43.446;3.698;2023-05-15T05:16:13;13.65;;;5.68;;
66256;SDS011;53049;43.446;3.698;2023-05-15T05:18:38;9.57;;;6.18;;
66256;SDS011;53049;43.446;3.698;2023-05-15T05:21:04;9.02;;;5.72;;
66256;SDS011;53049;43.446;3.698;2023-05-15T05:23:30;14.57;;;6.10;;
66256;SDS011;53049;43.446;3.698;2023-05-15T05:25:56;8.88;;;5.30;;
66256;SDS011;53049;43.446;3.698;2023-05-15T05:28:22;10.75;;;5.60;;
66256;SDS011;53049;43.446;3.698;2023-05-15T05:30:48;9.27;;;5.85;;
66256;SDS011;53049;43.446;3.698;2023-05-15T05:33:14;10.00;;;5.93;;
66256;SDS011;53049;43.446;3.698;2023-05-15T05:35:40;8.73;;;5.72;;
66256;SDS011;53049;43.446;3.698;2023-05-15T05:38:05;10.05;;;5.80;;
66256;SDS011;53049;43.446;3.698;2023-05-15T05:40:31;11.23;;;5.85;;
66256;SDS011;53049;43.446;3.698;2023-05-15T05:43:00;11.85;;;6.03;;
66256;SDS011;53049;43.446;3.698;2023-05-15T05:45:26;7.85;;;5.88;;
66256;SDS011;53049;43.446;3.698;2023-05-15T05:47:54;7.30;;;5.47;;
66256;SDS011;53049;43.446;3.698;2023-05-15T05:50:20;8.68;;;5.72;;
66256;SDS011;53049;43.446;3.698;2023-05-15T05:52:46;8.52;;;5.50;;
66256;SDS011;53049;43.446;3.698;2023-05-15T05:55:12;9.98;;;5.93;;
66256;SDS011;53049;43.446;3.698;2023-05-15T05:57:38;10.20;;;6.07;;
66256;SDS011;53049;43.446;3.698;2023-05-15T06:00:04;11.32;;;5.88;;
66256;SDS011;53049;43.446;3.698;2023-05-15T06:02:35;8.77;;;6.28;;
66256;SDS011;53049;43.446;3.698;2023-05-15T06:05:02;8.38;;;5.43;;
66256;SDS011;53049;43.446;3.698;2023-05-15T06:07:27;12.23;;;6.07;;
66256;SDS011;53049;43.446;3.698;2023-05-15T06:09:53;10.07;;;5.85;;
66256;SDS011;53049;43.446;3.698;2023-05-15T06:12:19;11.82;;;6.30;;
66256;SDS011;53049;43.446;3.698;2023-05-15T06:14:45;9.13;;;6.35;;
66256;SDS011;53049;43.446;3.698;2023-05-15T06:17:10;10.50;;;6.20;;
66256;SDS011;53049;43.446;3.698;2023-05-15T06:19:36;11.45;;;6.22;;
66256;SDS011;53049;43.446;3.698;2023-05-15T06:22:02;9.77;;;6.20;;
66256;SDS011;53049;43.446;3.698;2023-05-15T06:24:27;10.10;;;6.57;;
66256;SDS011;53049;43.446;3.698;2023-05-15T06:26:53;10.05;;;6.53;;
66256;SDS011;53049;43.446;3.698;2023-05-15T06:29:19;7.75;;;6.30;;
66256;SDS011;53049;43.446;3.698;2023-05-15T06:31:47;10.68;;;6.82;;
66256;SDS011;53049;43.446;3.698;2023-05-15T06:34:12;11.05;;;6.95;;
66256;SDS011;53049;43.446;3.698;2023-05-15T06:36:38;12.25;;;6.72;;
66256;SDS011;53049;43.446;3.698;2023-05-15T06:39:04;11.63;;;6.78;;
66256;SDS011;53049;43.446;3.698;2023-05-15T06:41:31;11.43;;;6.60;;
66256;SDS011;53049;43.446;3.698;2023-05-15T06:43:56;10.70;;;6.50;;
66256;SDS011;53049;43.446;3.698;2023-05-15T06:46:23;12.45;;;6.13;;
66256;SDS011;53049;43.446;3.698;2023-05-15T06:48:49;10.02;;;6.60;;
66256;SDS011;53049;43.446;3.698;2023-05-15T06:51:14;9.52;;;6.28;;
66256;SDS011;53049;43.446;3.698;2023-05-15T06:53:41;10.07;;;6.45;;
66256;SDS011;53049;43.446;3.698;2023-05-15T06:56:07;9.43;;;6.13;;
66256;SDS011;53049;43.446;3.698;2023-05-15T06:58:33;8.98;;;6.15;;
66256;SDS011;53049;43.446;3.698;2023-05-15T07:00:59;9.40;;;6.35;;
66256;SDS011;53049;43.446;3.698;2023-05-15T07:03:27;10.13;;;6.28;;
66256;SDS011;53049;43.446;3.698;2023-05-15T07:05:53;11.68;;;6.32;;
66256;SDS011;53049;43.446;3.698;2023-05-15T07:08:19;12.25;;;7.32;;
66256;SDS011;53049;43.446;3.698;2023-05-15T07:10:45;11.73;;;7.13;;
66256;SDS011;53049;43.446;3.698;2023-05-15T07:13:10;9.88;;;6.20;;
66256;SDS011;53049;43.446;3.698;2023-05-15T07:15:36;8.65;;;5.78;;
66256;SDS011;53049;43.446;3.698;2023-05-15T07:18:02;8.10;;;5.85;;
66256;SDS011;53049;43.446;3.698;2023-05-15T07:20:27;10.18;;;6.13;;
66256;SDS011;53049;43.446;3.698;2023-05-15T07:22:53;13.45;;;7.07;;
66256;SDS011;53049;43.446;3.698;2023-05-15T07:25:19;13.73;;;7.07;;
66256;SDS011;53049;43.446;3.698;2023-05-15T07:27:45;11.70;;;7.13;;
66256;SDS011;53049;43.446;3.698;2023-05-15T07:30:10;10.27;;;5.95;;
66256;SDS011;53049;43.446;3.698;2023-05-15T07:32:36;14.80;;;6.68;;
66256;SDS011;53049;43.446;3.698;2023-05-15T07:35:02;11.90;;;6.20;;
66256;SDS011;53049;43.446;3.698;2023-05-15T07:37:28;13.25;;;6.03;;
66256;SDS011;53049;43.446;3.698;2023-05-15T07:39:55;8.80;;;5.90;;
66256;SDS011;53049;43.446;3.698;2023-05-15T07:42:20;10.65;;;5.82;;
66256;SDS011;53049;43.446;3.698;2023-05-15T07:44:46;7.60;;;5.85;;
66256;SDS011;53049;43.446;3.698;2023-05-15T07:47:12;10.52;;;6.07;;
66256;SDS011;53049;43.446;3.698;2023-05-15T07:49:38;12.27;;;5.85;;
66256;SDS011;53049;43.446;3.698;2023-05-15T07:52:04;7.05;;;5.60;;
66256;SDS011;53049;43.446;3.698;2023-05-15T07:54:29;7.68;;;5.70;;
66256;SDS011;53049;43.446;3.698;2023-05-15T07:56:56;9.75;;;5.90;;
66256;SDS011;53049;43.446;3.698;2023-05-15T07:59:22;7.43;;;5.25;;
66256;SDS011;53049;43.446;3.698;2023-05-15T08:01:48;8.05;;;5.47;;
66256;SDS011;53049;43.446;3.698;2023-05-15T08:04:14;6.72;;;5.18;;
66256;SDS011;53049;43.446;3.698;2023-05-15T08:06:39;6.82;;;5.25;;
66256;SDS011;53049;43.446;3.698;2023-05-15T08:09:06;7.25;;;4.85;;
66256;SDS011;53049;43.446;3.698;2023-05-15T08:11:33;8.68;;;5.13;;
66256;SDS011;53049;43.446;3.698;2023-05-15T08:13:59;11.80;;;5.25;;
66256;SDS011;53049;43.446;3.698;2023-05-15T08:16:24;6.72;;;4.90;;
66256;SDS011;53049;43.446;3.698;2023-05-15T08:18:50;7.90;;;5.20;;
66256;SDS011;53049;43.446;3.698;2023-05-15T08:21:22;6.65;;;4.93;;
66256;SDS011;53049;43.446;3.698;2023-05-15T08:23:48;11.27;;;4.72;;
66256;SDS011;53049;43.446;3.698;2023-05-15T08:26:13;7.70;;;5.18;;
66256;SDS011;53049;43.446;3.698;2023-05-15T08:28:39;8.32;;;4.70;;
66256;SDS011;53049;43.446;3.698;2023-05-15T08:31:05;12.23;;;5.35;;
66256;SDS011;53049;43.446;3.698;2023-05-15T08:33:30;6.20;;;4.50;;
66256;SDS011;53049;43.446;3.698;2023-05-15T08:35:56;7.10;;;4.97;;
66256;SDS011;53049;43.446;3.698;2023-05-15T08:38:22;8.73;;;5.53;;
66256;SDS011;53049;43.446;3.698;2023-05-15T08:40:49;8.02;;;4.82;;
66256;SDS011;53049;43.446;3.698;2023-05-15T08:43:16;8.43;;;5.20;;
66256;SDS011;53049;43.446;3.698;2023-05-15T08:45:44;8.48;;;5.43;;
66256;SDS011;53049;43.446;3.698;2023-05-15T08:48:11;7.43;;;5.32;;
66256;SDS011;53049;43.446;3.698;2023-05-15T08:50:38;8.82;;;4.78;;
66256;SDS011;53049;43.446;3.698;2023-05-15T08:53:05;6.53;;;4.80;;
66256;SDS011;53049;43.446;3.698;2023-05-15T08:55:31;8.15;;;5.60;;
66256;SDS011;53049;43.446;3.698;2023-05-15T08:57:57;6.70;;;5.22;;
66256;SDS011;53049;43.446;3.698;2023-05-15T09:00:24;8.73;;;5.50;;
66256;SDS011;53049;43.446;3.698;2023-05-15T09:02:52;7.60;;;5.60;;
66256;SDS011;53049;43.446;3.698;2023-05-15T09:05:18;7.30;;;5.15;;
66256;SDS011;53049;43.446;3.698;2023-05-15T09:07:44;10.00;;;5.28;;
66256;SDS011;53049;43.446;3.698;2023-05-15T09:10:12;8.00;;;5.20;;
66256;SDS011;53049;43.446;3.698;2023-05-15T09:12:40;8.32;;;4.60;;
66256;SDS011;53049;43.446;3.698;2023-05-15T09:15:11;7.25;;;4.95;;
66256;SDS011;53049;43.446;3.698;2023-05-15T09:17:46;7.10;;;4.55;;
66256;SDS011;53049;43.446;3.698;2023-05-15T09:22:58;6.15;;;4.70;;
66256;SDS011;53049;43.446;3.698;2023-05-15T09:25:36;7.55;;;4.78;;
66256;SDS011;53049;43.446;3.698;2023-05-15T09:28:03;6.07;;;4.70;;
66256;SDS011;53049;43.446;3.698;2023-05-15T09:30:48;9.63;;;5.28;;
66256;SDS011;53049;43.446;3.698;2023-05-15T09:33:15;7.43;;;4.95;;
66256;SDS011;53049;43.446;3.698;2023-05-15T09:35:41;7.63;;;4.75;;
66256;SDS011;53049;43.446;3.698;2023-05-15T09:38:10;7.55;;;4.75;;
66256;SDS011;53049;43.446;3.698;2023-05-15T09:40:37;7.50;;;4.50;;
66256;SDS011;53049;43.446;3.698;2023-05-15T09:43:03;8.55;;;4.80;;
66256;SDS011;53049;43.446;3.698;2023-05-15T09:45:29;9.60;;;4.70;;
66256;SDS011;53049;43.446;3.698;2023-05-15T09:47:56;8.68;;;4.50;;
66256;SDS011;53049;43.446;3.698;2023-05-15T09:50:25;7.25;;;4.55;;
66256;SDS011;53049;43.446;3.698;2023-05-15T09:53:03;8.10;;;4.10;;
66256;SDS011;53049;43.446;3.698;2023-05-15T09:55:33;5.93;;;4.10;;
66256;SDS011;53049;43.446;3.698;2023-05-15T09:58:06;7.57;;;4.38;;
66256;SDS011;53049;43.446;3.698;2023-05-15T10:00:40;7.13;;;4.45;;
66256;SDS011;53049;43.446;3.698;2023-05-15T10:03:07;9.40;;;4.80;;
66256;SDS011;53049;43.446;3.698;2023-05-15T10:05:34;6.82;;;4.40;;
66256;SDS011;53049;43.446;3.698;2023-05-15T10:08:00;7.45;;;4.20;;
66256;SDS011;53049;43.446;3.698;2023-05-15T10:10:27;6.13;;;4.28;;
66256;SDS011;53049;43.446;3.698;2023-05-15T10:12:54;7.32;;;4.25;;
66256;SDS011;53049;43.446;3.698;2023-05-15T10:15:30;6.22;;;4.53;;
66256;SDS011;53049;43.446;3.698;2023-05-15T10:17:56;6.80;;;4.40;;
66256;SDS011;53049;43.446;3.698;2023-05-15T10:20:23;6.65;;;4.20;;
66256;SDS011;53049;43.446;3.698;2023-05-15T10:22:51;5.68;;;4.00;;
66256;SDS011;53049;43.446;3.698;2023-05-15T10:28:09;7.32;;;3.78;;
66256;SDS011;53049;43.446;3.698;2023-05-15T10:30:36;8.68;;;4.15;;
66256;SDS011;53049;43.446;3.698;2023-05-15T10:33:05;6.75;;;4.10;;
66256;SDS011;53049;43.446;3.698;2023-05-15T10:35:35;7.97;;;3.70;;
66256;SDS011;53049;43.446;3.698;2023-05-15T10:38:03;6.07;;;4.00;;
66256;SDS011;53049;43.446;3.698;2023-05-15T10:40:30;5.88;;;3.90;;
66256;SDS011;53049;43.446;3.698;2023-05-15T10:42:57;6.45;;;4.35;;
66256;SDS011;53049;43.446;3.698;2023-05-15T10:45:25;9.52;;;3.83;;
66256;SDS011;53049;43.446;3.698;2023-05-15T10:47:52;6.57;;;4.00;;
66256;SDS011;53049;43.446;3.698;2023-05-15T10:50:18;8.27;;;4.10;;
66256;SDS011;53049;43.446;3.698;2023-05-15T10:52:44;6.50;;;4.03;;
66256;SDS011;53049;43.446;3.698;2023-05-15T10:55:13;7.30;;;4.32;;
66256;SDS011;53049;43.446;3.698;2023-05-15T10:57:41;8.45;;;4.25;;
66256;SDS011;53049;43.446;3.698;2023-05-15T11:00:29;7.82;;;4.15;;
66256;SDS011;53049;43.446;3.698;2023-05-15T11:02:55;8.93;;;3.97;;
66256;SDS011;53049;43.446;3.698;2023-05-15T11:05:22;8.88;;;3.95;;
66256;SDS011;53049;43.446;3.698;2023-05-15T11:08:22;5.57;;;3.83;;
66256;SDS011;53049;43.446;3.698;2023-05-15T11:10:50;7.93;;;3.97;;
66256;SDS011;53049;43.446;3.698;2023-05-15T11:13:16;7.05;;;3.80;;
66256;SDS011;53049;43.446;3.698;2023-05-15T11:15:42;7.43;;;3.70;;
66256;SDS011;53049;43.446;3.698;2023-05-15T11:18:09;5.78;;;3.92;;
66256;SDS011;53049;43.446;3.698;2023-05-15T11:20:38;6.32;;;3.55;;
66256;SDS011;53049;43.446;3.698;2023-05-15T11:23:05;6.88;;;3.25;;
66256;SDS011;53049;43.446;3.698;2023-05-15T11:25:34;5.20;;;3.22;;
66256;SDS011;53049;43.446;3.698;2023-05-15T11:28:03;5.20;;;3.47;;
66256;SDS011;53049;43.446;3.698;2023-05-15T11:30:33;6.45;;;3.83;;
66256;SDS011;53049;43.446;3.698;2023-05-15T11:33:03;6.10;;;3.35;;
66256;SDS011;53049;43.446;3.698;2023-05-15T11:35:41;5.63;;;3.42;;
66256;SDS011;53049;43.446;3.698;2023-05-15T11:43:27;6.38;;;3.38;;
66256;SDS011;53049;43.446;3.698;2023-05-15T11:45:55;5.57;;;3.17;;
66256;SDS011;53049;43.446;3.698;2023-05-15T11:48:31;6.35;;;3.72;;
66256;SDS011;53049;43.446;3.698;2023-05-15T11:51:02;5.85;;;3.30;;
66256;SDS011;53049;43.446;3.698;2023-05-15T11:53:29;5.53;;;3.10;;
66256;SDS011;53049;43.446;3.698;2023-05-15T11:55:56;4.55;;;3.10;;
66256;SDS011;53049;43.446;3.698;2023-05-15T11:58:23;5.57;;;3.53;;
66256;SDS011;53049;43.446;3.698;2023-05-15T12:00:50;5.32;;;3.28;;
66256;SDS011;53049;43.446;3.698;2023-05-15T12:05:47;5.28;;;3.00;;
66256;SDS011;53049;43.446;3.698;2023-05-15T12:08:13;6.32;;;3.00;;
66256;SDS011;53049;43.446;3.698;2023-05-15T12:10:42;6.80;;;3.35;;
66256;SDS011;53049;43.446;3.698;2023-05-15T12:13:11;4.97;;;3.00;;
66256;SDS011;53049;43.446;3.698;2023-05-15T12:15:38;6.97;;;3.05;;
66256;SDS011;53049;43.446;3.698;2023-05-15T12:18:07;5.68;;;3.10;;
66256;SDS011;53049;43.446;3.698;2023-05-15T12:20:34;7.35;;;3.20;;
66256;SDS011;53049;43.446;3.698;2023-05-15T12:23:01;5.65;;;3.03;;
66256;SDS011;53049;43.446;3.698;2023-05-15T12:25:32;4.97;;;3.17;;
66256;SDS011;53049;43.446;3.698;2023-05-15T12:28:00;5.78;;;3.30;;
66256;SDS011;53049;43.446;3.698;2023-05-15T12:30:27;5.18;;;3.30;;
66256;SDS011;53049;43.446;3.698;2023-05-15T12:32:59;7.82;;;3.50;;
66256;SDS011;53049;43.446;3.698;2023-05-15T12:35:28;5.43;;;3.28;;
66256;SDS011;53049;43.446;3.698;2023-05-15T12:37:54;5.43;;;3.63;;
66256;SDS011;53049;43.446;3.698;2023-05-15T12:40:20;6.18;;;3.30;;
66256;SDS011;53049;43.446;3.698;2023-05-15T12:42:50;4.57;;;2.80;;
66256;SDS011;53049;43.446;3.698;2023-05-15T12:45:18;8.23;;;3.38;;
66256;SDS011;53049;43.446;3.698;2023-05-15T12:47:45;6.47;;;3.70;;
66256;SDS011;53049;43.446;3.698;2023-05-15T12:52:40;6.50;;;3.75;;
66256;SDS011;53049;43.446;3.698;2023-05-15T12:55:14;7.03;;;3.88;;
66256;SDS011;53049;43.446;3.698;2023-05-15T12:57:41;8.10;;;3.40;;
66256;SDS011;53049;43.446;3.698;2023-05-15T13:00:09;4.80;;;3.38;;
66256;SDS011;53049;43.446;3.698;2023-05-15T13:02:35;6.45;;;3.75;;
66256;SDS011;53049;43.446;3.698;2023-05-15T13:05:01;5.20;;;3.30;;
66256;SDS011;53049;43.446;3.698;2023-05-15T13:07:28;10.23;;;3.72;;
66256;SDS011;53049;43.446;3.698;2023-05-15T13:10:01;8.70;;;3.80;;
66256;SDS011;53049;43.446;3.698;2023-05-15T13:12:42;7.63;;;3.78;;
66256;SDS011;53049;43.446;3.698;2023-05-15T13:22:59;7.25;;;3.60;;
66256;SDS011;53049;43.446;3.698;2023-05-15T13:25:25;7.68;;;3.88;;
66256;SDS011;53049;43.446;3.698;2023-05-15T13:27:51;10.65;;;3.45;;
66256;SDS011;53049;43.446;3.698;2023-05-15T13:30:17;4.53;;;3.08;;
66256;SDS011;53049;43.446;3.698;2023-05-15T13:32:43;6.65;;;3.53;;
66256;SDS011;53049;43.446;3.698;2023-05-15T13:35:08;8.73;;;4.03;;
66256;SDS011;53049;43.446;3.698;2023-05-15T13:37:35;6.55;;;3.50;;
66256;SDS011;53049;43.446;3.698;2023-05-15T13:40:01;4.85;;;3.50;;
66256;SDS011;53049;43.446;3.698;2023-05-15T13:42:30;5.35;;;3.42;;
66256;SDS011;53049;43.446;3.698;2023-05-15T13:44:56;5.90;;;3.58;;
66256;SDS011;53049;43.446;3.698;2023-05-15T13:47:22;5.20;;;3.38;;
66256;SDS011;53049;43.446;3.698;2023-05-15T13:49:47;6.13;;;3.10;;
66256;SDS011;53049;43.446;3.698;2023-05-15T13:52:13;9.80;;;3.90;;
66256;SDS011;53049;43.446;3.698;2023-05-15T13:54:39;9.55;;;4.00;;
66256;SDS011;53049;43.446;3.698;2023-05-15T13:57:05;7.35;;;3.35;;
66256;SDS011;53049;43.446;3.698;2023-05-15T13:59:30;7.80;;;3.67;;
66256;SDS011;53049;43.446;3.698;2023-05-15T14:01:56;11.52;;;4.07;;
66256;SDS011;53049;43.446;3.698;2023-05-15T14:04:21;10.13;;;3.65;;
66256;SDS011;53049;43.446;3.698;2023-05-15T14:06:47;10.77;;;3.97;;
66256;SDS011;53049;43.446;3.698;2023-05-15T14:09:13;8.75;;;3.58;;
66256;SDS011;53049;43.446;3.698;2023-05-15T14:11:38;7.13;;;3.60;;
66256;SDS011;53049;43.446;3.698;2023-05-15T14:14:04;10.95;;;3.70;;
66256;SDS011;53049;43.446;3.698;2023-05-15T14:16:30;6.72;;;3.67;;
66256;SDS011;53049;43.446;3.698;2023-05-15T14:18:55;4.70;;;3.30;;
66256;SDS011;53049;43.446;3.698;2023-05-15T14:21:22;5.20;;;3.35;;
66256;SDS011;53049;43.446;3.698;2023-05-15T14:23:47;7.10;;;3.70;;
66256;SDS011;53049;43.446;3.698;2023-05-15T14:26:13;8.60;;;3.40;;
66256;SDS011;53049;43.446;3.698;2023-05-15T14:28:39;9.02;;;3.55;;
66256;SDS011;53049;43.446;3.698;2023-05-15T14:31:04;10.60;;;3.60;;
66256;SDS011;53049;43.446;3.698;2023-05-15T14:33:30;6.18;;;3.42;;
66256;SDS011;53049;43.446;3.698;2023-05-15T14:35:56;6.05;;;3.35;;
66256;SDS011;53049;43.446;3.698;2023-05-15T14:38:21;7.30;;;3.75;;
66256;SDS011;53049;43.446;3.698;2023-05-15T14:40:47;6.97;;;3.90;;
66256;SDS011;53049;43.446;3.698;2023-05-15T14:43:13;6.35;;;3.50;;
66256;SDS011;53049;43.446;3.698;2023-05-15T14:45:39;7.72;;;4.10;;
66256;SDS011;53049;43.446;3.698;2023-05-15T14:48:04;5.45;;;3.75;;
66256;SDS011;53049;43.446;3.698;2023-05-15T14:50:30;6.15;;;3.20;;
66256;SDS011;53049;43.446;3.698;2023-05-15T14:52:55;6.25;;;3.55;;
66256;SDS011;53049;43.446;3.698;2023-05-15T14:55:21;6.80;;;3.72;;
66256;SDS011;53049;43.446;3.698;2023-05-15T14:57:47;8.63;;;3.60;;
66256;SDS011;53049;43.446;3.698;2023-05-15T15:00:13;5.20;;;3.35;;
66256;SDS011;53049;43.446;3.698;2023-05-15T15:02:39;10.07;;;3.83;;
66256;SDS011;53049;43.446;3.698;2023-05-15T15:05:06;6.47;;;3.60;;
66256;SDS011;53049;43.446;3.698;2023-05-15T15:10:25;5.03;;;3.53;;
66256;SDS011;53049;43.446;3.698;2023-05-15T15:12:52;5.43;;;3.60;;
66256;SDS011;53049;43.446;3.698;2023-05-15T15:15:18;6.03;;;3.63;;
66256;SDS011;53049;43.446;3.698;2023-05-15T15:17:44;7.82;;;3.70;;
66256;SDS011;53049;43.446;3.698;2023-05-15T15:20:10;5.60;;;3.60;;
66256;SDS011;53049;43.446;3.698;2023-05-15T15:22:37;7.10;;;3.80;;
66256;SDS011;53049;43.446;3.698;2023-05-15T15:25:04;5.10;;;3.38;;
66256;SDS011;53049;43.446;3.698;2023-05-15T15:27:30;7.13;;;3.33;;
66256;SDS011;53049;43.446;3.698;2023-05-15T15:29:56;4.88;;;3.25;;